createdAt,value
2023-04-11T00:03:21.095Z,99.9
2023-04-11T00:05:22.156Z,99.9
2023-04-11T00:07:23.532Z,99.9
2023-04-11T00:09:24.941Z,99.9
2023-04-11T00:11:31.064Z,99.9
2023-04-11T00:13:31.007Z,99.9
2023-04-11T00:15:32.397Z,99.9
2023-04-11T00:16:35.589Z,99.9
2023-04-11T00:18:36.158Z,99.9
2023-04-11T00:24:43.646Z,99.9
2023-04-11T00:26:45.046Z,99.9
2023-04-11T00:28:46.454Z,99.9
2023-04-11T00:30:47.834Z,99.9
2023-04-11T00:40:58.090Z,99.9
2023-04-11T00:49:03.650Z,99.9
2023-04-11T00:51:05.053Z,99.9
2023-04-11T00:53:09.746Z,99.9
2023-04-11T00:55:11.156Z,99.9
2023-04-11T00:57:12.561Z,99.9
2023-04-11T01:03:16.847Z,99.9
2023-04-11T01:05:18.092Z,99.9
2023-04-11T01:09:24.216Z,99.9
2023-04-11T01:11:25.609Z,99.9
2023-04-11T01:19:59.978Z,99.9
2023-04-11T01:24:02.754Z,99.9
2023-04-11T01:26:04.146Z,99.9
2023-04-11T01:28:05.581Z,99.9
2023-04-11T01:30:06.977Z,99.9
2023-04-11T01:32:08.317Z,99.9
2023-04-11T01:34:12.995Z,99.9
2023-04-11T01:36:14.477Z,99.9
2023-04-11T01:38:15.768Z,99.9
2023-04-11T01:40:17.190Z,99.9
2023-04-11T01:42:18.602Z,99.9
2023-04-11T01:44:20.157Z,99.9
2023-04-11T01:46:21.357Z,99.9
2023-04-11T01:48:26.185Z,99.9
2023-04-11T01:50:27.417Z,99.9
2023-04-11T01:52:28.822Z,99.9
2023-04-11T01:54:30.645Z,99.9
2023-04-11T01:56:31.611Z,99.9
2023-04-11T01:58:33.074Z,99.9
2023-04-11T02:00:34.391Z,99.9
2023-04-11T02:02:39.277Z,99.9
2023-04-11T02:04:41.089Z,99.9
2023-04-11T02:09:45.970Z,99.9
2023-04-11T02:13:48.411Z,99.9
2023-04-11T02:15:53.153Z,99.9
2023-04-11T02:17:54.636Z,99.9
2023-04-11T02:21:57.302Z,99.9
2023-04-11T02:23:59.713Z,99.9
2023-04-11T02:26:00.110Z,99.9
2023-04-11T02:28:01.494Z,99.9
2023-04-11T02:30:06.337Z,99.9
2023-04-11T02:32:07.806Z,99.9
2023-04-11T02:34:09.112Z,99.9
2023-04-11T02:36:10.520Z,99.9
2023-04-11T02:38:11.882Z,99.9
2023-04-11T02:40:13.649Z,99.9
2023-04-11T02:42:14.690Z,99.9
2023-04-11T02:44:19.386Z,99.9
2023-04-11T02:48:22.172Z,99.9
2023-04-11T02:50:23.605Z,99.9
2023-04-11T02:52:25.057Z,99.9
2023-04-11T02:56:27.858Z,99.9
2023-04-11T02:58:32.560Z,99.9
2023-04-11T03:03:37.747Z,99.9
2023-04-11T03:05:39.091Z,99.9
2023-04-11T03:09:41.886Z,99.9
2023-04-11T03:15:49.375Z,99.9
2023-04-11T03:17:50.839Z,99.9
2023-04-11T03:19:52.219Z,99.9
2023-04-11T03:21:53.605Z,99.9
2023-04-11T03:23:54.999Z,99.9
2023-04-11T03:25:59.701Z,99.9
2023-04-11T03:28:01.093Z,99.9
2023-04-11T03:32:03.913Z,99.9
2023-04-11T03:34:05.303Z,99.9
2023-04-11T03:36:06.743Z,99.9
2023-04-11T03:40:14.340Z,99.9
2023-04-11T03:42:15.746Z,99.9
2023-04-11T03:44:17.136Z,99.9
2023-04-11T03:48:20.537Z,99.9
2023-04-11T03:50:21.344Z,99.9
2023-04-11T03:52:22.738Z,99.9
2023-04-11T03:58:30.334Z,99.9
2023-04-11T03:59:32.668Z,99.9
2023-04-11T04:01:34.089Z,99.9
2023-04-11T04:03:35.708Z,99.9
2023-04-11T04:05:36.863Z,99.9
2023-04-11T04:07:41.586Z,99.9
2023-04-11T04:09:42.960Z,99.9
2023-04-11T04:11:44.362Z,99.9
2023-04-11T04:13:45.734Z,99.9
2023-04-11T04:15:47.138Z,99.9
2023-04-11T04:17:48.588Z,99.9
2023-04-11T04:19:49.923Z,99.9
2023-04-11T04:21:54.601Z,99.9
2023-04-11T04:23:56.075Z,99.9
2023-04-11T04:25:57.413Z,99.9
2023-04-11T04:27:58.803Z,99.9
2023-04-11T04:30:04.094Z,99.9
2023-04-11T04:32:01.732Z,99.9
2023-04-11T04:34:03.011Z,99.9
2023-04-11T04:36:07.775Z,99.9
2023-04-11T04:38:09.106Z,99.9
2023-04-11T04:40:10.492Z,99.9
2023-04-11T04:44:13.296Z,99.9
2023-04-11T04:48:16.114Z,99.9
2023-04-11T04:50:20.815Z,99.9
2023-04-11T04:52:24.096Z,99.9
2023-04-11T04:54:23.594Z,99.9
2023-04-11T04:56:46.635Z,99.9
2023-04-11T05:00:49.581Z,99.9
2023-04-11T05:02:54.297Z,99.9
2023-04-11T05:04:55.558Z,99.9
2023-04-11T05:06:56.973Z,99.9
2023-04-11T05:10:59.778Z,99.9
2023-04-11T05:13:01.204Z,99.9
2023-04-11T05:15:02.617Z,99.9
2023-04-11T05:17:07.386Z,99.9
2023-04-11T05:19:08.729Z,99.9
2023-04-11T05:23:11.497Z,99.9
2023-04-11T05:25:12.881Z,99.9
2023-04-11T05:29:15.697Z,99.9
2023-04-11T05:31:20.481Z,99.9
2023-04-11T05:33:21.773Z,99.9
2023-04-11T05:35:23.172Z,99.9
2023-04-11T05:37:24.557Z,99.9
2023-04-11T05:39:25.927Z,99.9
2023-04-11T05:41:27.314Z,99.9
2023-04-11T05:45:33.439Z,99.9
2023-04-11T05:52:39.978Z,99.9
2023-04-11T05:54:41.414Z,99.9
2023-04-11T05:58:47.555Z,99.9
2023-04-11T06:00:48.931Z,99.9
2023-04-11T06:02:50.419Z,99.9
2023-04-11T06:06:53.085Z,99.9
2023-04-11T06:08:54.518Z,99.9
2023-04-11T06:10:55.941Z,99.9
2023-04-11T06:13:00.612Z,99.9
2023-04-11T06:15:02.003Z,99.9
2023-04-11T06:27:13.673Z,99.9
2023-04-11T06:29:15.107Z,99.9
2023-04-11T06:37:20.738Z,99.9
2023-04-11T06:48:33.360Z,99.9
2023-04-11T06:50:34.769Z,99.9
2023-04-11T06:52:36.214Z,99.9
2023-04-11T06:54:40.912Z,99.9
2023-04-11T06:56:42.327Z,99.9
2023-04-11T07:00:45.144Z,99.9
2023-04-11T07:02:46.825Z,99.9
2023-04-11T07:04:48.048Z,99.9
2023-04-11T07:06:49.376Z,99.9
2023-04-11T07:19:01.114Z,99.9
2023-04-11T07:21:02.544Z,99.7
2023-04-11T07:29:14.413Z,98.8
2023-04-11T07:39:21.847Z,97.8
2023-04-11T07:41:23.229Z,97.3
2023-04-11T07:42:25.607Z,97.4
2023-04-11T07:54:37.372Z,95
2023-04-11T08:21:02.357Z,92.5
2023-04-11T08:23:05.864Z,92.4
2023-04-11T08:25:05.196Z,92.4
2023-04-11T08:27:06.586Z,92.1
2023-04-11T08:31:09.485Z,90.7
2023-04-11T08:33:14.130Z,90.1
2023-04-11T08:35:15.516Z,90.2
2023-04-11T08:37:16.942Z,97
2023-04-11T08:41:47.136Z,98.1
2023-04-11T08:43:48.536Z,97.5
2023-04-11T08:45:53.301Z,95.3
2023-04-11T08:47:54.998Z,94.3
2023-04-11T08:49:56.357Z,93.4
2023-04-11T08:51:57.504Z,92.8
2023-04-11T08:53:58.917Z,92.5
2023-04-11T08:56:00.321Z,91.9
2023-04-11T09:00:06.439Z,91.2
2023-04-11T09:02:08.011Z,90.9
2023-04-11T09:04:09.275Z,90.8
2023-04-11T09:06:10.666Z,90.9
2023-04-11T09:08:12.236Z,90.9
2023-04-11T09:10:13.510Z,90.6
2023-04-11T09:12:14.908Z,89.5
2023-04-11T09:14:19.646Z,87.3
2023-04-11T09:18:22.422Z,86.5
2023-04-11T09:20:23.876Z,86.2
2023-04-11T09:22:25.286Z,86
2023-04-11T09:24:26.682Z,91.1
2023-04-11T09:26:28.087Z,90.4
2023-04-11T09:28:34.338Z,84.8
2023-04-11T09:30:35.748Z,84.7
2023-04-11T09:32:37.165Z,83.5
2023-04-11T09:35:40.973Z,82.8
2023-04-11T09:37:42.318Z,77.3
2023-04-11T09:39:43.756Z,76.2
2023-04-11T09:41:48.461Z,76.3
2023-04-11T09:43:49.879Z,75.8
2023-04-11T09:45:54.400Z,74.5
2023-04-11T09:47:52.792Z,72.9
2023-04-11T09:49:54.136Z,76.2
2023-04-11T09:51:55.531Z,76.8
2023-04-11T09:53:57.234Z,77.3
2023-04-11T09:56:01.619Z,80.8
2023-04-11T09:58:03.035Z,80.4
2023-04-11T10:00:04.521Z,78.5
2023-04-11T10:06:08.726Z,77.2
2023-04-11T10:08:10.124Z,77.2
2023-04-11T10:10:14.842Z,79.8
2023-04-11T10:12:16.260Z,80.4
2023-04-11T10:14:17.673Z,80.8
2023-04-11T10:18:20.513Z,78.5
2023-04-11T10:22:23.365Z,73.7
2023-04-11T10:26:29.457Z,71.5
2023-04-11T10:28:30.864Z,70.8
2023-04-11T10:29:33.562Z,67.7
2023-04-11T10:31:34.638Z,67.8
2023-04-11T10:33:36.067Z,69
2023-04-11T10:35:37.461Z,69
2023-04-11T10:37:42.169Z,69
2023-04-11T10:39:43.623Z,68.3
2023-04-11T10:41:44.971Z,67.3
2023-04-11T10:43:46.415Z,66.8
2023-04-11T10:49:50.603Z,68
2023-04-11T10:53:56.720Z,67.9
2023-04-11T10:55:58.132Z,69.2
2023-04-11T10:57:59.539Z,69.3
2023-04-11T11:00:01.016Z,69.4
2023-04-11T11:04:04.005Z,69.7
2023-04-11T11:10:11.323Z,71.1
2023-04-11T11:16:15.982Z,68.4
2023-04-11T11:18:16.989Z,69.4
2023-04-11T11:20:21.665Z,68.9
2023-04-11T11:22:23.073Z,67.4
2023-04-11T11:24:24.539Z,65.3
2023-04-11T11:25:26.903Z,64.8
2023-04-11T11:39:40.105Z,63.4
2023-04-11T11:41:41.488Z,62.3
2023-04-11T11:43:42.876Z,62.4
2023-04-11T11:45:44.322Z,62.3
2023-04-11T11:47:49.090Z,62.2
2023-04-11T11:49:50.450Z,62.4
2023-04-11T11:51:51.876Z,64
2023-04-11T11:55:54.709Z,63.3
2023-04-11T11:57:56.136Z,63.2
2023-04-11T11:59:57.559Z,62.9
2023-04-11T12:04:03.739Z,62.5
2023-04-11T12:06:05.108Z,62.6
2023-04-11T12:08:06.492Z,62.6
2023-04-11T12:10:07.915Z,62.8
2023-04-11T12:12:09.328Z,62.8
2023-04-11T12:16:15.521Z,64.5
2023-04-11T12:18:16.866Z,61.4
2023-04-11T12:20:19.276Z,61.3
2023-04-11T12:22:41.190Z,59.1
2023-04-11T12:24:42.592Z,58.1
2023-04-11T12:26:57.421Z,57.9
2023-04-11T12:28:48.705Z,58.3
2023-04-11T12:30:50.280Z,58.4
2023-04-11T12:32:51.537Z,59.1
2023-04-11T12:34:52.946Z,58.9
2023-04-11T12:38:56.167Z,59.5
2023-04-11T12:41:13.984Z,59.7
2023-04-11T12:43:01.885Z,59.7
2023-04-11T12:45:03.306Z,58.7
2023-04-11T12:47:04.776Z,58
2023-04-11T12:49:06.122Z,57.9
2023-04-11T12:51:07.537Z,55
2023-04-11T12:53:08.965Z,54.4
2023-04-11T12:55:10.380Z,54.8
2023-04-11T12:57:15.070Z,55
2023-04-11T13:01:17.933Z,56.3
2023-04-11T13:03:19.409Z,58.4
2023-04-11T13:05:20.850Z,58
2023-04-11T13:07:22.130Z,58.2
2023-04-11T13:15:31.075Z,56
2023-04-11T13:16:34.244Z,55.6
2023-04-11T13:18:34.801Z,56
2023-04-11T13:20:36.250Z,55.3
2023-04-11T13:24:42.346Z,53.9
2023-04-11T13:26:43.748Z,53.9
2023-04-11T13:30:46.620Z,53.8
2023-04-11T13:34:49.387Z,51.2
2023-04-11T13:36:50.802Z,51.1
2023-04-11T13:40:56.948Z,47.4
2023-04-11T13:44:59.827Z,45.3
2023-04-11T13:47:01.199Z,45.2
2023-04-11T13:51:03.993Z,45
2023-04-11T13:53:08.700Z,45.6
2023-04-11T13:55:10.098Z,46
2023-04-11T13:57:11.532Z,46.9
2023-04-11T13:59:12.935Z,48.3
2023-04-11T14:01:14.400Z,48.3
2023-04-11T14:05:17.129Z,47.8
2023-04-11T14:07:21.864Z,46
2023-04-11T14:18:31.224Z,48.8
2023-04-11T14:24:38.731Z,51.1
2023-04-11T14:26:40.146Z,49.1
2023-04-11T14:28:41.556Z,49
2023-04-11T14:30:43.059Z,48.9
2023-04-11T14:32:44.473Z,49.2
2023-04-11T14:34:49.137Z,49.7
2023-04-11T14:36:50.542Z,48.3
2023-04-11T14:40:53.324Z,47
2023-04-11T14:44:56.136Z,45.9
2023-04-11T14:46:57.529Z,45.8
2023-04-11T14:49:02.424Z,44.4
2023-04-11T14:51:03.684Z,43.9
2023-04-11T14:53:05.102Z,43.8
2023-04-11T14:55:06.510Z,43.6
2023-04-11T14:57:07.904Z,43.3
2023-04-11T14:59:09.506Z,43.2
2023-04-11T15:01:10.763Z,42
2023-04-11T15:03:15.693Z,42.5
2023-04-11T15:05:16.850Z,42.7
2023-04-11T15:07:18.255Z,43.3
2023-04-11T15:10:22.005Z,43.2
2023-04-11T15:12:23.427Z,43.5
2023-04-11T15:14:24.821Z,43.4
2023-04-11T15:16:29.623Z,43.5
2023-04-11T15:24:36.764Z,43.4
2023-04-11T15:26:38.163Z,44.2
2023-04-11T15:28:39.566Z,44.2
2023-04-11T15:30:44.280Z,45
2023-04-11T15:32:45.765Z,45.5
2023-04-11T15:34:47.232Z,48.3
2023-04-11T15:36:48.531Z,48.6
2023-04-11T15:38:49.940Z,48.8
2023-04-11T15:40:51.477Z,48.7
2023-04-11T15:44:58.228Z,46.3
2023-04-11T15:46:58.974Z,46.1
2023-04-11T15:49:00.343Z,46.2
2023-04-11T16:03:13.868Z,47.5
2023-04-11T16:05:34.359Z,46.8
2023-04-11T16:07:35.765Z,46.3
2023-04-11T16:09:37.191Z,46.1
2023-04-11T16:11:41.976Z,45.6
2023-04-11T16:13:43.316Z,46
2023-04-11T16:15:44.733Z,46.2
2023-04-11T16:17:46.127Z,45.9
2023-04-11T16:19:47.581Z,45.7
2023-04-11T16:21:48.970Z,45.6
2023-04-11T16:42:10.229Z,47.4
2023-04-11T16:48:14.476Z,47.1
2023-04-11T16:50:15.945Z,46.9
2023-04-11T16:52:17.401Z,47
2023-04-11T16:54:22.069Z,46.9
2023-04-11T16:56:23.519Z,47.4
2023-04-11T16:58:24.940Z,47.5
2023-04-11T17:07:36.243Z,49
2023-04-11T17:09:37.681Z,49.2
2023-04-11T17:11:39.137Z,49.8
2023-04-11T17:15:41.965Z,50.4
2023-04-11T17:17:43.394Z,51
2023-04-11T17:19:44.832Z,51.4
2023-04-11T17:21:49.537Z,51.9
2023-04-11T17:23:50.983Z,51.9
2023-04-11T17:25:52.401Z,51.9
2023-04-11T17:27:53.793Z,52.1
2023-04-11T17:29:55.268Z,52.3
2023-04-11T17:31:56.681Z,53.5
2023-04-11T17:36:02.881Z,55.9
2023-04-11T17:38:04.273Z,56.1
2023-04-11T17:40:05.675Z,56.6
2023-04-11T17:42:07.104Z,56.9
2023-04-11T17:44:08.517Z,57.4
2023-04-11T17:52:17.523Z,59.3
2023-04-11T17:55:21.336Z,59.9
2023-04-11T17:57:22.758Z,60.2
2023-04-11T17:59:24.188Z,60.7
2023-04-11T18:19:45.097Z,74.7
2023-04-11T18:21:46.525Z,76.8
2023-04-11T18:25:49.358Z,85
2023-04-11T18:27:50.799Z,85.2
2023-04-11T18:29:52.200Z,85.6
2023-04-11T18:40:02.598Z,80.1
2023-04-11T18:42:04.018Z,80
2023-04-11T18:44:06.595Z,84.4
2023-04-11T18:46:10.221Z,89.7
2023-04-11T18:48:11.718Z,90.6
2023-04-11T18:50:12.988Z,90.5
2023-04-11T18:57:19.584Z,89.9
2023-04-11T18:59:25.266Z,92.8
2023-04-11T19:05:29.399Z,93.8
2023-04-11T19:07:30.075Z,93.7
2023-04-11T19:23:44.747Z,95.7
2023-04-11T19:25:46.170Z,95.9
2023-04-11T19:27:50.901Z,96.4
2023-04-11T19:29:52.286Z,96
2023-04-11T19:31:53.738Z,94.9
2023-04-11T19:37:58.513Z,92.9
2023-04-11T19:39:59.359Z,92.8
2023-04-11T19:46:06.979Z,97.3
2023-04-11T19:48:30.214Z,96.8
2023-04-11T19:52:33.031Z,95.3
2023-04-11T19:54:37.730Z,93.7
2023-04-11T19:56:39.146Z,93.2
2023-04-11T19:58:40.591Z,92.9
2023-04-11T20:00:42.013Z,93
2023-04-11T20:02:43.500Z,93.3
2023-04-11T20:04:44.810Z,93.7
2023-04-11T20:08:50.928Z,94.1
2023-04-11T20:10:52.380Z,94.1
2023-04-11T20:12:53.750Z,93.9
2023-04-11T20:14:55.192Z,93.6
2023-04-11T20:16:56.706Z,93.5
2023-04-11T20:20:59.838Z,93.2
2023-04-11T20:23:04.181Z,93.3
2023-04-11T20:25:05.682Z,93.4
2023-04-11T20:27:07.087Z,93.5
2023-04-11T20:29:08.526Z,93.6
2023-04-11T20:31:10.254Z,93.5
2023-04-11T20:33:11.387Z,93.3
2023-04-11T20:35:12.834Z,93.2
2023-04-11T20:37:18.926Z,93.2
2023-04-11T20:39:18.913Z,93
2023-04-11T20:41:20.317Z,93.1
2023-04-11T20:42:22.696Z,93.2
2023-04-11T20:44:24.118Z,93.3
2023-04-11T20:46:25.567Z,93.4
2023-04-11T20:48:26.938Z,93.5
2023-04-11T20:50:31.681Z,93.8
2023-04-11T20:52:33.107Z,93.9
2023-04-11T20:54:34.514Z,94
2023-04-11T20:56:35.930Z,93.9
2023-04-11T20:58:37.362Z,93.9
2023-04-11T21:06:46.345Z,94.3
2023-04-11T21:08:47.743Z,94.3
2023-04-11T21:12:50.602Z,94.2
2023-04-11T21:16:54.962Z,94
2023-04-11T21:21:01.143Z,94.3
2023-04-11T21:25:04.816Z,94.6
2023-04-11T21:33:13.797Z,95.3
2023-04-11T21:38:18.977Z,95.3
2023-04-11T21:40:20.418Z,95.2
2023-04-11T21:42:21.847Z,95.2
2023-04-11T21:44:23.222Z,95.1
2023-04-11T21:46:27.992Z,95.2
2023-04-11T21:48:29.413Z,95.3
2023-04-11T21:50:30.809Z,95.5
2023-04-11T21:52:32.244Z,95.7
2023-04-11T21:54:33.647Z,95.9
2023-04-11T21:58:36.458Z,95.9
2023-04-11T22:00:41.186Z,95.9
2023-04-11T22:02:42.786Z,95.8
2023-04-11T22:06:45.428Z,95.8
2023-04-11T22:08:46.887Z,95.8
2023-04-11T22:25:01.509Z,97.1
2023-04-11T22:29:07.636Z,97
2023-04-11T22:34:12.819Z,97.1
2023-04-11T22:36:14.245Z,97.1
2023-04-11T22:38:15.678Z,97.1
2023-04-11T22:40:17.074Z,97.3
2023-04-11T22:42:21.814Z,97.2
2023-04-11T22:44:23.220Z,97.1
2023-04-11T22:48:26.043Z,96.8
2023-04-11T22:52:28.869Z,96.8
2023-04-11T22:56:35.002Z,96.8
2023-04-11T23:02:39.366Z,96.6
2023-04-11T23:04:40.794Z,96.5
2023-04-11T23:06:42.100Z,96.6
2023-04-11T23:08:43.531Z,96.6
2023-04-11T23:10:48.262Z,96.8
2023-04-11T23:12:49.766Z,96.8
2023-04-11T23:14:51.104Z,96.8
2023-04-11T23:16:52.563Z,96.7
2023-04-11T23:18:53.952Z,96.8
2023-04-11T23:22:56.753Z,97
2023-04-11T23:25:01.508Z,98.2
2023-04-11T23:41:37.910Z,99
2023-04-11T23:43:39.290Z,99.3
2023-04-11T23:45:40.747Z,99.5
2023-04-11T23:57:52.521Z,99.9
2023-04-11T23:59:53.937Z,99.9
